sensor_id;sensor_type;location;lat;lon;timestamp;pressure;altitude;pressure_sealevel;temperature;humidity
8703;BME280;9002;42.708;23.186;2024-01-15T00:01:15;94425.47;;;1.65;53.74
8703;BME280;9002;42.708;23.186;2024-01-15T00:03:42;94427.81;;;1.60;53.62
8703;BME280;9002;42.708;23.186;2024-01-15T00:06:09;94418.19;;;1.42;54.02
8703;BME280;9002;42.708;23.186;2024-01-15T00:08:36;94390.53;;;1.20;53.54
8703;BME280;9002;42.708;23.186;2024-01-15T00:11:03;94385.41;;;1.00;55.19
8703;BME280;9002;42.708;23.186;2024-01-15T00:13:30;94419.09;;;0.89;55.81
8703;BME280;9002;42.708;23.186;2024-01-15T00:15:59;94422.28;;;1.10;55.67
8703;BME280;9002;42.708;23.186;2024-01-15T00:18:26;94397.19;;;1.14;55.18
8703;BME280;9002;42.708;23.186;2024-01-15T00:20:53;94421.31;;;1.25;54.98
8703;BME280;9002;42.708;23.186;2024-01-15T00:23:20;94419.75;;;1.17;55.29
8703;BME280;9002;42.708;23.186;2024-01-15T00:25:47;94411.72;;;1.20;55.34
8703;BME280;9002;42.708;23.186;2024-01-15T00:28:14;94428.97;;;1.18;55.61
8703;BME280;9002;42.708;23.186;2024-01-15T00:30:40;94414.47;;;1.19;55.11
8703;BME280;9002;42.708;23.186;2024-01-15T00:33:10;94416.03;;;1.20;54.73
8703;BME280;9002;42.708;23.186;2024-01-15T00:35:38;94418.53;;;1.06;55.85
8703;BME280;9002;42.708;23.186;2024-01-15T00:38:05;94418.16;;;1.03;55.17
8703;BME280;9002;42.708;23.186;2024-01-15T00:40:32;94409.91;;;0.94;55.81
8703;BME280;9002;42.708;23.186;2024-01-15T00:42:59;94386.28;;;0.66;56.40
8703;BME280;9002;42.708;23.186;2024-01-15T00:45:26;94396.16;;;0.82;56.13
8703;BME280;9002;42.708;23.186;2024-01-15T00:47:53;94393.81;;;0.94;56.01
8703;BME280;9002;42.708;23.186;2024-01-15T00:50:24;94422.50;;;1.09;55.55
8703;BME280;9002;42.708;23.186;2024-01-15T00:52:51;94416.19;;;1.05;56.56
8703;BME280;9002;42.708;23.186;2024-01-15T00:55:18;94398.31;;;0.85;55.65
8703;BME280;9002;42.708;23.186;2024-01-15T00:57:45;94410.13;;;0.99;55.08
8703;BME280;9002;42.708;23.186;2024-01-15T01:00:13;94401.44;;;0.87;55.94
8703;BME280;9002;42.708;23.186;2024-01-15T01:02:40;94413.63;;;1.05;55.07
8703;BME280;9002;42.708;23.186;2024-01-15T01:05:07;94379.09;;;0.82;56.22
8703;BME280;9002;42.708;23.186;2024-01-15T01:07:35;94404.22;;;1.05;55.61
8703;BME280;9002;42.708;23.186;2024-01-15T01:10:02;94402.69;;;1.18;54.92
8703;BME280;9002;42.708;23.186;2024-01-15T01:12:30;94403.69;;;1.30;54.29
8703;BME280;9002;42.708;23.186;2024-01-15T01:14:57;94401.09;;;1.03;55.30
8703;BME280;9002;42.708;23.186;2024-01-15T01:17:25;94395.38;;;0.95;55.48
8703;BME280;9002;42.708;23.186;2024-01-15T01:19:52;94406.16;;;0.83;55.29
8703;BME280;9002;42.708;23.186;2024-01-15T01:22:19;94401.41;;;0.80;55.72
8703;BME280;9002;42.708;23.186;2024-01-15T01:24:47;94398.44;;;0.70;55.83
8703;BME280;9002;42.708;23.186;2024-01-15T01:27:14;94398.25;;;0.65;55.93
8703;BME280;9002;42.708;23.186;2024-01-15T01:29:41;94396.31;;;0.74;55.47
8703;BME280;9002;42.708;23.186;2024-01-15T01:32:08;94386.88;;;0.68;56.68
8703;BME280;9002;42.708;23.186;2024-01-15T01:34:40;94386.16;;;0.87;54.86
8703;BME280;9002;42.708;23.186;2024-01-15T01:37:07;94388.88;;;0.85;55.89
8703;BME280;9002;42.708;23.186;2024-01-15T01:39:34;94387.16;;;0.99;54.73
8703;BME280;9002;42.708;23.186;2024-01-15T01:42:03;94385.97;;;1.02;54.00
8703;BME280;9002;42.708;23.186;2024-01-15T01:44:30;94375.19;;;1.00;54.50
8703;BME280;9002;42.708;23.186;2024-01-15T01:46:58;94381.28;;;1.05;55.27
8703;BME280;9002;42.708;23.186;2024-01-15T01:49:26;94384.22;;;1.16;54.34
8703;BME280;9002;42.708;23.186;2024-01-15T01:51:53;94385.00;;;1.16;54.14
8703;BME280;9002;42.708;23.186;2024-01-15T01:54:21;94375.59;;;1.17;54.63
8703;BME280;9002;42.708;23.186;2024-01-15T01:56:49;94377.75;;;1.13;54.12
8703;BME280;9002;42.708;23.186;2024-01-15T01:59:18;94377.38;;;1.09;54.58
8703;BME280;9002;42.708;23.186;2024-01-15T02:01:46;94361.44;;;0.94;54.92
8703;BME280;9002;42.708;23.186;2024-01-15T02:04:12;94373.44;;;1.13;54.17
8703;BME280;9002;42.708;23.186;2024-01-15T02:06:39;94373.59;;;0.99;54.54
8703;BME280;9002;42.708;23.186;2024-01-15T02:09:07;94369.09;;;1.07;55.06
8703;BME280;9002;42.708;23.186;2024-01-15T02:11:35;94367.56;;;1.00;55.26
8703;BME280;9002;42.708;23.186;2024-01-15T02:14:02;94340.66;;;0.91;54.65
8703;BME280;9002;42.708;23.186;2024-01-15T02:16:31;94352.66;;;1.10;53.85
8703;BME280;9002;42.708;23.186;2024-01-15T02:18:58;94350.66;;;0.99;55.06
8703;BME280;9002;42.708;23.186;2024-01-15T02:21:25;94349.31;;;1.03;54.86
8703;BME280;9002;42.708;23.186;2024-01-15T02:23:55;94330.84;;;0.94;54.40
8703;BME280;9002;42.708;23.186;2024-01-15T02:26:22;94299.09;;;0.90;55.03
8703;BME280;9002;42.708;23.186;2024-01-15T02:28:50;94307.31;;;0.99;54.77
8703;BME280;9002;42.708;23.186;2024-01-15T02:31:17;94303.00;;;0.99;54.98
8703;BME280;9002;42.708;23.186;2024-01-15T02:33:44;94301.03;;;0.95;55.10
8703;BME280;9002;42.708;23.186;2024-01-15T02:36:12;94295.94;;;0.88;55.24
8703;BME280;9002;42.708;23.186;2024-01-15T02:38:39;94308.13;;;0.99;54.64
8703;BME280;9002;42.708;23.186;2024-01-15T02:41:07;94307.69;;;0.76;55.33
8703;BME280;9002;42.708;23.186;2024-01-15T02:43:34;94303.91;;;0.52;56.20
8703;BME280;9002;42.708;23.186;2024-01-15T02:46:01;94306.84;;;0.49;56.09
8703;BME280;9002;42.708;23.186;2024-01-15T02:48:28;94303.13;;;0.51;56.33
8703;BME280;9002;42.708;23.186;2024-01-15T02:50:55;94301.59;;;0.57;55.97
8703;BME280;9002;42.708;23.186;2024-01-15T02:53:22;94305.72;;;0.65;56.08
8703;BME280;9002;42.708;23.186;2024-01-15T02:55:49;94296.06;;;0.53;56.11
8703;BME280;9002;42.708;23.186;2024-01-15T02:58:17;94306.09;;;0.68;56.25
8703;BME280;9002;42.708;23.186;2024-01-15T03:00:44;94292.22;;;0.84;55.21
8703;BME280;9002;42.708;23.186;2024-01-15T03:03:11;94291.63;;;0.82;54.98
8703;BME280;9002;42.708;23.186;2024-01-15T03:05:38;94296.13;;;0.87;55.79
8703;BME280;9002;42.708;23.186;2024-01-15T03:08:05;94286.91;;;0.85;55.02
8703;BME280;9002;42.708;23.186;2024-01-15T03:10:32;94316.13;;;0.83;55.75
8703;BME280;9002;42.708;23.186;2024-01-15T03:12:59;94298.28;;;0.83;55.54
8703;BME280;9002;42.708;23.186;2024-01-15T03:15:28;94287.47;;;0.61;56.18
8703;BME280;9002;42.708;23.186;2024-01-15T03:17:55;94281.59;;;0.67;55.41
8703;BME280;9002;42.708;23.186;2024-01-15T03:20:22;94295.53;;;0.65;55.54
8703;BME280;9002;42.708;23.186;2024-01-15T03:22:49;94294.75;;;0.64;55.70
8703;BME280;9002;42.708;23.186;2024-01-15T03:25:16;94265.31;;;0.55;55.63
8703;BME280;9002;42.708;23.186;2024-01-15T03:27:43;94286.09;;;0.72;55.58
8703;BME280;9002;42.708;23.186;2024-01-15T03:30:13;94278.66;;;0.70;55.51
8703;BME280;9002;42.708;23.186;2024-01-15T03:32:41;94261.22;;;0.67;55.24
8703;BME280;9002;42.708;23.186;2024-01-15T03:35:08;94273.56;;;0.77;54.19
8703;BME280;9002;42.708;23.186;2024-01-15T03:37:36;94277.88;;;0.76;55.02
8703;BME280;9002;42.708;23.186;2024-01-15T03:40:03;94288.28;;;0.81;54.86
8703;BME280;9002;42.708;23.186;2024-01-15T03:42:30;94256.88;;;0.61;55.16
8703;BME280;9002;42.708;23.186;2024-01-15T03:44:57;94275.34;;;0.76;54.95
8703;BME280;9002;42.708;23.186;2024-01-15T03:47:26;94275.94;;;0.85;54.94
8703;BME280;9002;42.708;23.186;2024-01-15T03:49:54;94278.28;;;0.87;54.64
8703;BME280;9002;42.708;23.186;2024-01-15T03:52:21;94264.16;;;0.84;54.59
8703;BME280;9002;42.708;23.186;2024-01-15T03:54:48;94266.31;;;0.87;54.74
8703;BME280;9002;42.708;23.186;2024-01-15T03:57:18;94270.84;;;0.85;54.74
8703;BME280;9002;42.708;23.186;2024-01-15T03:59:45;94267.28;;;0.66;54.30
8703;BME280;9002;42.708;23.186;2024-01-15T04:02:13;94262.81;;;0.81;53.94
8703;BME280;9002;42.708;23.186;2024-01-15T04:04:41;94270.06;;;0.84;54.37
8703;BME280;9002;42.708;23.186;2024-01-15T04:07:09;94252.00;;;0.93;53.71
8703;BME280;9002;42.708;23.186;2024-01-15T04:09:36;94255.50;;;0.72;53.47
8703;BME280;9002;42.708;23.186;2024-01-15T04:12:04;94249.03;;;0.63;54.54
8703;BME280;9002;42.708;23.186;2024-01-15T04:14:31;94260.84;;;0.83;53.51
8703;BME280;9002;42.708;23.186;2024-01-15T04:16:58;94257.69;;;0.75;54.24
8703;BME280;9002;42.708;23.186;2024-01-15T04:19:25;94243.19;;;0.55;54.85
8703;BME280;9002;42.708;23.186;2024-01-15T04:21:52;94254.72;;;0.58;54.44
8703;BME280;9002;42.708;23.186;2024-01-15T04:24:20;94247.09;;;0.71;54.89
8703;BME280;9002;42.708;23.186;2024-01-15T04:26:47;94220.63;;;0.46;55.06
8703;BME280;9002;42.708;23.186;2024-01-15T04:29:14;94241.78;;;0.53;54.93
8703;BME280;9002;42.708;23.186;2024-01-15T04:31:41;94247.47;;;0.48;55.09
8703;BME280;9002;42.708;23.186;2024-01-15T04:34:08;94248.63;;;0.39;54.77
8703;BME280;9002;42.708;23.186;2024-01-15T04:36:38;94260.78;;;0.31;56.43
8703;BME280;9002;42.708;23.186;2024-01-15T04:39:06;94257.03;;;0.26;56.68
8703;BME280;9002;42.708;23.186;2024-01-15T04:41:34;94260.72;;;0.17;56.78
8703;BME280;9002;42.708;23.186;2024-01-15T04:44:01;94241.97;;;0.32;56.24
8703;BME280;9002;42.708;23.186;2024-01-15T04:46:28;94234.69;;;0.35;55.69
8703;BME280;9002;42.708;23.186;2024-01-15T04:48:54;94236.25;;;0.23;56.53
8703;BME280;9002;42.708;23.186;2024-01-15T04:51:21;94234.09;;;0.26;56.82
8703;BME280;9002;42.708;23.186;2024-01-15T04:53:48;94242.50;;;0.14;56.05
8703;BME280;9002;42.708;23.186;2024-01-15T04:56:15;94234.63;;;0.09;57.10
8703;BME280;9002;42.708;23.186;2024-01-15T04:58:43;94217.84;;;0.21;57.17
8703;BME280;9002;42.708;23.186;2024-01-15T05:01:10;94228.03;;;0.34;56.95
8703;BME280;9002;42.708;23.186;2024-01-15T05:03:37;94218.25;;;0.31;56.27
8703;BME280;9002;42.708;23.186;2024-01-15T05:06:05;94206.09;;;0.26;56.57
8703;BME280;9002;42.708;23.186;2024-01-15T05:08:32;94228.47;;;0.38;56.53
8703;BME280;9002;42.708;23.186;2024-01-15T05:10:59;94217.47;;;0.44;56.00
8703;BME280;9002;42.708;23.186;2024-01-15T05:13:26;94219.03;;;0.45;55.98
8703;BME280;9002;42.708;23.186;2024-01-15T05:15:54;94215.03;;;-0.04;57.12
8703;BME280;9002;42.708;23.186;2024-01-15T05:18:21;94223.13;;;0.19;57.00
8703;BME280;9002;42.708;23.186;2024-01-15T05:20:48;94219.03;;;0.32;56.41
8703;BME280;9002;42.708;23.186;2024-01-15T05:23:15;94223.34;;;0.31;56.67
8703;BME280;9002;42.708;23.186;2024-01-15T05:25:42;94224.53;;;0.28;56.29
8703;BME280;9002;42.708;23.186;2024-01-15T05:28:09;94225.50;;;0.34;55.98
8703;BME280;9002;42.708;23.186;2024-01-15T05:30:35;94241.34;;;0.10;56.53
8703;BME280;9002;42.708;23.186;2024-01-15T05:33:04;94229.78;;;0.14;56.39
8703;BME280;9002;42.708;23.186;2024-01-15T05:35:32;94209.03;;;0.30;56.31
8703;BME280;9002;42.708;23.186;2024-01-15T05:37:59;94205.84;;;0.08;56.37
8703;BME280;9002;42.708;23.186;2024-01-15T05:40:28;94209.38;;;0.07;57.00
8703;BME280;9002;42.708;23.186;2024-01-15T05:42:55;94213.72;;;0.13;56.11
8703;BME280;9002;42.708;23.186;2024-01-15T05:45:22;94227.19;;;0.07;57.21
8703;BME280;9002;42.708;23.186;2024-01-15T05:47:49;94212.25;;;-0.22;58.33
8703;BME280;9002;42.708;23.186;2024-01-15T05:50:17;94198.34;;;-0.20;57.72
8703;BME280;9002;42.708;23.186;2024-01-15T05:52:44;94201.91;;;-0.08;57.32
8703;BME280;9002;42.708;23.186;2024-01-15T05:55:11;94189.38;;;-0.16;57.89
8703;BME280;9002;42.708;23.186;2024-01-15T05:57:38;94192.53;;;0.06;57.11
8703;BME280;9002;42.708;23.186;2024-01-15T06:00:06;94207.59;;;-0.06;57.66
8703;BME280;9002;42.708;23.186;2024-01-15T06:02:34;94210.28;;;-0.20;58.47
8703;BME280;9002;42.708;23.186;2024-01-15T06:05:01;94214.44;;;-0.06;57.75
8703;BME280;9002;42.708;23.186;2024-01-15T06:07:29;94219.28;;;-0.24;58.41
8703;BME280;9002;42.708;23.186;2024-01-15T06:09:56;94203.94;;;-0.44;59.13
8703;BME280;9002;42.708;23.186;2024-01-15T06:12:23;94200.97;;;-0.48;59.36
8703;BME280;9002;42.708;23.186;2024-01-15T06:14:50;94213.16;;;-0.43;59.44
8703;BME280;9002;42.708;23.186;2024-01-15T06:17:17;94197.09;;;-0.37;59.27
8703;BME280;9002;42.708;23.186;2024-01-15T06:19:44;94195.75;;;-0.33;59.05
8703;BME280;9002;42.708;23.186;2024-01-15T06:22:11;94201.44;;;-0.31;59.34
8703;BME280;9002;42.708;23.186;2024-01-15T06:24:39;94194.03;;;-0.19;58.67
8703;BME280;9002;42.708;23.186;2024-01-15T06:27:06;94191.53;;;-0.06;58.41
8703;BME280;9002;42.708;23.186;2024-01-15T06:29:33;94197.91;;;-0.30;58.45
8703;BME280;9002;42.708;23.186;2024-01-15T06:32:04;94206.75;;;-0.19;58.61
8703;BME280;9002;42.708;23.186;2024-01-15T06:34:31;94206.59;;;-0.18;57.99
8703;BME280;9002;42.708;23.186;2024-01-15T06:36:58;94198.91;;;-0.31;58.62
8703;BME280;9002;42.708;23.186;2024-01-15T06:39:25;94203.03;;;-0.23;58.34
8703;BME280;9002;42.708;23.186;2024-01-15T06:41:53;94198.19;;;-0.05;58.13
8703;BME280;9002;42.708;23.186;2024-01-15T06:44:21;94182.88;;;-0.18;58.45
8703;BME280;9002;42.708;23.186;2024-01-15T06:46:47;94212.34;;;0.11;57.23
8703;BME280;9002;42.708;23.186;2024-01-15T06:49:15;94207.63;;;0.14;57.13
8703;BME280;9002;42.708;23.186;2024-01-15T06:51:42;94211.16;;;0.00;57.41
8703;BME280;9002;42.708;23.186;2024-01-15T06:54:09;94201.72;;;-0.06;58.16
8703;BME280;9002;42.708;23.186;2024-01-15T06:56:38;94207.34;;;-0.24;58.47
8703;BME280;9002;42.708;23.186;2024-01-15T06:59:07;94204.00;;;-0.24;58.77
8703;BME280;9002;42.708;23.186;2024-01-15T07:01:33;94209.56;;;-0.08;59.08
8703;BME280;9002;42.708;23.186;2024-01-15T07:04:01;94203.53;;;0.13;57.70
8703;BME280;9002;42.708;23.186;2024-01-15T07:06:29;94222.97;;;0.41;57.23
8703;BME280;9002;42.708;23.186;2024-01-15T07:08:56;94211.03;;;0.48;57.45
8703;BME280;9002;42.708;23.186;2024-01-15T07:11:23;94218.47;;;0.56;56.75
8703;BME280;9002;42.708;23.186;2024-01-15T07:13:50;94219.84;;;0.52;56.88
8703;BME280;9002;42.708;23.186;2024-01-15T07:16:18;94216.31;;;0.66;56.20
8703;BME280;9002;42.708;23.186;2024-01-15T07:18:45;94217.47;;;0.50;56.60
8703;BME280;9002;42.708;23.186;2024-01-15T07:21:12;94221.03;;;0.56;57.02
8703;BME280;9002;42.708;23.186;2024-01-15T07:23:39;94208.25;;;0.63;56.36
8703;BME280;9002;42.708;23.186;2024-01-15T07:26:10;94203.38;;;0.61;56.62
8703;BME280;9002;42.708;23.186;2024-01-15T07:28:39;94213.00;;;0.66;57.03
8703;BME280;9002;42.708;23.186;2024-01-15T07:31:09;94202.97;;;0.77;56.97
8703;BME280;9002;42.708;23.186;2024-01-15T07:33:38;94180.25;;;0.69;55.98
8703;BME280;9002;42.708;23.186;2024-01-15T07:36:05;94190.03;;;0.85;56.29
8703;BME280;9002;42.708;23.186;2024-01-15T07:38:32;94203.56;;;0.86;56.74
8703;BME280;9002;42.708;23.186;2024-01-15T07:40:59;94197.09;;;0.83;56.60
8703;BME280;9002;42.708;23.186;2024-01-15T07:43:29;94212.59;;;1.02;56.17
8703;BME280;9002;42.708;23.186;2024-01-15T07:45:56;94209.00;;;1.16;55.32
8703;BME280;9002;42.708;23.186;2024-01-15T07:48:24;94208.81;;;1.24;55.37
8703;BME280;9002;42.708;23.186;2024-01-15T07:50:52;94222.94;;;1.07;56.11
8703;BME280;9002;42.708;23.186;2024-01-15T07:53:19;94220.97;;;1.16;55.35
8703;BME280;9002;42.708;23.186;2024-01-15T07:55:46;94225.91;;;1.17;55.91
8703;BME280;9002;42.708;23.186;2024-01-15T07:58:13;94221.41;;;0.79;56.16
8703;BME280;9002;42.708;23.186;2024-01-15T08:00:40;94187.25;;;1.07;55.61
8703;BME280;9002;42.708;23.186;2024-01-15T08:03:07;94177.47;;;0.97;56.32
8703;BME280;9002;42.708;23.186;2024-01-15T08:05:34;94179.59;;;1.13;56.37
8703;BME280;9002;42.708;23.186;2024-01-15T08:08:03;94182.75;;;1.09;56.85
8703;BME280;9002;42.708;23.186;2024-01-15T08:10:30;94204.53;;;1.11;56.35
8703;BME280;9002;42.708;23.186;2024-01-15T08:12:56;94209.00;;;1.29;56.34
8703;BME280;9002;42.708;23.186;2024-01-15T08:15:23;94218.22;;;1.37;55.65
8703;BME280;9002;42.708;23.186;2024-01-15T08:17:50;94207.75;;;1.52;54.88
8703;BME280;9002;42.708;23.186;2024-01-15T08:20:17;94206.59;;;1.48;54.00
8703;BME280;9002;42.708;23.186;2024-01-15T08:22:44;94220.16;;;1.41;54.83
8703;BME280;9002;42.708;23.186;2024-01-15T08:25:14;94213.47;;;1.40;54.99
8703;BME280;9002;42.708;23.186;2024-01-15T08:27:41;94229.19;;;1.31;55.11
8703;BME280;9002;42.708;23.186;2024-01-15T08:30:09;94225.59;;;1.52;54.32
8703;BME280;9002;42.708;23.186;2024-01-15T08:32:36;94214.66;;;1.45;53.85
8703;BME280;9002;42.708;23.186;2024-01-15T08:35:07;94188.28;;;1.64;54.30
8703;BME280;9002;42.708;23.186;2024-01-15T08:37:34;94195.13;;;1.70;53.12
8703;BME280;9002;42.708;23.186;2024-01-15T08:40:01;94180.34;;;1.79;53.80
8703;BME280;9002;42.708;23.186;2024-01-15T08:42:30;94181.88;;;1.86;53.89
8703;BME280;9002;42.708;23.186;2024-01-15T08:44:57;94178.75;;;1.84;54.40
8703;BME280;9002;42.708;23.186;2024-01-15T08:47:24;94174.00;;;1.94;54.64
8703;BME280;9002;42.708;23.186;2024-01-15T08:49:51;94187.34;;;1.96;52.49
8703;BME280;9002;42.708;23.186;2024-01-15T08:52:18;94185.44;;;1.85;54.40
8703;BME280;9002;42.708;23.186;2024-01-15T08:54:45;94162.41;;;1.54;53.12
8703;BME280;9002;42.708;23.186;2024-01-15T08:57:12;94176.41;;;1.89;53.21
8703;BME280;9002;42.708;23.186;2024-01-15T08:59:41;94174.00;;;1.94;52.63
8703;BME280;9002;42.708;23.186;2024-01-15T09:02:08;94157.13;;;1.87;53.26
8703;BME280;9002;42.708;23.186;2024-01-15T09:04:35;94121.56;;;1.54;53.36
8703;BME280;9002;42.708;23.186;2024-01-15T09:07:02;94150.91;;;1.76;54.37
8703;BME280;9002;42.708;23.186;2024-01-15T09:09:31;94143.75;;;1.98;53.13
8703;BME280;9002;42.708;23.186;2024-01-15T09:11:59;94098.31;;;1.68;53.50
8703;BME280;9002;42.708;23.186;2024-01-15T09:14:27;94123.09;;;1.99;52.49
8703;BME280;9002;42.708;23.186;2024-01-15T09:16:56;94094.31;;;2.11;52.86
8703;BME280;9002;42.708;23.186;2024-01-15T09:19:23;94105.47;;;1.91;53.60
8703;BME280;9002;42.708;23.186;2024-01-15T09:21:50;94101.81;;;1.81;53.16
8703;BME280;9002;42.708;23.186;2024-01-15T09:24:19;94103.13;;;2.15;52.52
8703;BME280;9002;42.708;23.186;2024-01-15T09:26:46;94102.22;;;2.34;52.62
8703;BME280;9002;42.708;23.186;2024-01-15T09:29:13;94077.66;;;2.08;54.34
8703;BME280;9002;42.708;23.186;2024-01-15T09:31:41;94095.31;;;2.10;53.93
8703;BME280;9002;42.708;23.186;2024-01-15T09:34:09;94090.41;;;2.33;53.89
8703;BME280;9002;42.708;23.186;2024-01-15T09:36:39;94093.69;;;2.40;52.93
8703;BME280;9002;42.708;23.186;2024-01-15T09:39:07;94083.63;;;2.45;53.95
8703;BME280;9002;42.708;23.186;2024-01-15T09:41:36;94063.88;;;2.34;53.46
8703;BME280;9002;42.708;23.186;2024-01-15T09:44:04;94075.91;;;2.52;52.88
8703;BME280;9002;42.708;23.186;2024-01-15T09:46:33;94080.13;;;2.65;52.67
8703;BME280;9002;42.708;23.186;2024-01-15T09:49:00;94046.59;;;2.54;52.66
8703;BME280;9002;42.708;23.186;2024-01-15T09:51:31;94059.59;;;2.53;52.85
8703;BME280;9002;42.708;23.186;2024-01-15T09:53:58;94053.75;;;2.46;53.42
8703;BME280;9002;42.708;23.186;2024-01-15T09:56:25;94044.22;;;2.10;53.52
8703;BME280;9002;42.708;23.186;2024-01-15T09:58:52;94030.47;;;2.11;54.71
8703;BME280;9002;42.708;23.186;2024-01-15T10:01:20;94029.94;;;2.27;55.42
8703;BME280;9002;42.708;23.186;2024-01-15T10:03:47;94033.06;;;2.29;53.63
8703;BME280;9002;42.708;23.186;2024-01-15T10:06:15;94048.22;;;2.49;54.02
8703;BME280;9002;42.708;23.186;2024-01-15T10:08:47;94040.78;;;2.22;54.31
8703;BME280;9002;42.708;23.186;2024-01-15T10:11:15;94023.28;;;2.26;55.04
8703;BME280;9002;42.708;23.186;2024-01-15T10:13:45;94011.69;;;2.23;54.33
8703;BME280;9002;42.708;23.186;2024-01-15T10:16:16;94017.72;;;2.29;52.67
8703;BME280;9002;42.708;23.186;2024-01-15T10:18:43;93998.03;;;2.54;52.31
8703;BME280;9002;42.708;23.186;2024-01-15T10:21:10;93974.31;;;2.47;52.23
8703;BME280;9002;42.708;23.186;2024-01-15T10:23:37;94004.69;;;2.74;51.63
8703;BME280;9002;42.708;23.186;2024-01-15T10:26:06;93989.34;;;2.74;51.33
8703;BME280;9002;42.708;23.186;2024-01-15T10:28:33;93986.06;;;2.85;50.23
8703;BME280;9002;42.708;23.186;2024-01-15T10:31:00;93986.97;;;3.09;50.54
8703;BME280;9002;42.708;23.186;2024-01-15T10:33:27;93967.00;;;3.29;49.90
8703;BME280;9002;42.708;23.186;2024-01-15T10:35:54;93993.22;;;3.43;48.21
8703;BME280;9002;42.708;23.186;2024-01-15T10:38:22;93946.94;;;3.56;48.04
8703;BME280;9002;42.708;23.186;2024-01-15T10:40:51;93980.66;;;3.41;49.16
8703;BME280;9002;42.708;23.186;2024-01-15T10:43:20;93983.88;;;3.19;48.91
8703;BME280;9002;42.708;23.186;2024-01-15T10:45:49;93968.31;;;3.20;48.59
8703;BME280;9002;42.708;23.186;2024-01-15T10:48:18;93978.03;;;3.60;48.41
8703;BME280;9002;42.708;23.186;2024-01-15T10:50:46;93971.16;;;3.95;48.59
8703;BME280;9002;42.708;23.186;2024-01-15T10:53:15;93964.78;;;4.21;46.14
8703;BME280;9002;42.708;23.186;2024-01-15T10:55:43;93950.19;;;4.22;45.36
8703;BME280;9002;42.708;23.186;2024-01-15T10:58:14;93958.00;;;4.04;46.99
8703;BME280;9002;42.708;23.186;2024-01-15T11:00:44;93934.50;;;4.18;46.42
8703;BME280;9002;42.708;23.186;2024-01-15T11:03:11;93958.66;;;4.46;45.82
8703;BME280;9002;42.708;23.186;2024-01-15T11:05:39;93946.81;;;4.56;46.00
8703;BME280;9002;42.708;23.186;2024-01-15T11:08:09;93952.91;;;5.07;45.02
8703;BME280;9002;42.708;23.186;2024-01-15T11:10:40;93944.69;;;5.51;44.62
8703;BME280;9002;42.708;23.186;2024-01-15T11:13:13;93936.53;;;5.70;42.93
8703;BME280;9002;42.708;23.186;2024-01-15T11:15:59;93932.63;;;6.02;41.95
8703;BME280;9002;42.708;23.186;2024-01-15T11:18:27;93908.81;;;6.06;42.56
8703;BME280;9002;42.708;23.186;2024-01-15T11:21:25;93933.34;;;6.14;42.30
8703;BME280;9002;42.708;23.186;2024-01-15T11:23:54;93909.16;;;6.32;41.23
8703;BME280;9002;42.708;23.186;2024-01-15T11:26:34;93930.09;;;6.40;41.50
8703;BME280;9002;42.708;23.186;2024-01-15T11:29:02;93897.84;;;6.33;41.20
8703;BME280;9002;42.708;23.186;2024-01-15T11:31:59;93908.97;;;6.38;41.21
8703;BME280;9002;42.708;23.186;2024-01-15T11:34:52;93911.97;;;6.30;41.56
8703;BME280;9002;42.708;23.186;2024-01-15T11:37:20;93887.34;;;5.95;42.09
8703;BME280;9002;42.708;23.186;2024-01-15T11:39:51;93897.13;;;5.98;42.08
8703;BME280;9002;42.708;23.186;2024-01-15T11:42:20;93896.66;;;5.85;43.22
8703;BME280;9002;42.708;23.186;2024-01-15T11:44:49;93906.00;;;5.91;42.98
8703;BME280;9002;42.708;23.186;2024-01-15T11:47:31;93903.34;;;5.86;42.48
8703;BME280;9002;42.708;23.186;2024-01-15T11:50:05;93868.94;;;5.36;42.82
8703;BME280;9002;42.708;23.186;2024-01-15T11:52:35;93869.34;;;5.45;43.00
8703;BME280;9002;42.708;23.186;2024-01-15T11:55:11;93864.28;;;5.50;42.40
8703;BME280;9002;42.708;23.186;2024-01-15T11:57:45;93876.13;;;5.51;43.48
8703;BME280;9002;42.708;23.186;2024-01-15T12:00:13;93888.34;;;5.44;43.81
8703;BME280;9002;42.708;23.186;2024-01-15T12:02:42;93888.19;;;5.51;43.90
8703;BME280;9002;42.708;23.186;2024-01-15T12:05:11;93880.47;;;5.34;44.01
8703;BME280;9002;42.708;23.186;2024-01-15T12:07:39;93879.84;;;5.44;45.03
8703;BME280;9002;42.708;23.186;2024-01-15T12:10:09;93843.97;;;5.32;44.02
8703;BME280;9002;42.708;23.186;2024-01-15T12:12:44;93873.00;;;5.32;45.51
8703;BME280;9002;42.708;23.186;2024-01-15T12:15:14;93870.81;;;5.24;44.84
8703;BME280;9002;42.708;23.186;2024-01-15T12:17:42;93848.09;;;5.33;45.96
8703;BME280;9002;42.708;23.186;2024-01-15T12:20:10;93849.97;;;5.37;45.48
8703;BME280;9002;42.708;23.186;2024-01-15T12:22:38;93852.53;;;5.37;45.44
8703;BME280;9002;42.708;23.186;2024-01-15T12:25:05;93863.66;;;5.43;46.05
8703;BME280;9002;42.708;23.186;2024-01-15T12:27:32;93846.84;;;5.52;45.21
8703;BME280;9002;42.708;23.186;2024-01-15T12:30:00;93857.91;;;5.53;44.82
8703;BME280;9002;42.708;23.186;2024-01-15T12:32:26;93849.94;;;5.21;46.34
8703;BME280;9002;42.708;23.186;2024-01-15T12:34:55;93844.03;;;5.37;46.12
8703;BME280;9002;42.708;23.186;2024-01-15T12:37:22;93839.53;;;5.61;45.83
8703;BME280;9002;42.708;23.186;2024-01-15T12:39:52;93840.16;;;5.51;46.20
8703;BME280;9002;42.708;23.186;2024-01-15T12:42:21;93825.78;;;5.50;45.34
8703;BME280;9002;42.708;23.186;2024-01-15T12:44:48;93822.56;;;5.60;45.15
8703;BME280;9002;42.708;23.186;2024-01-15T12:47:15;93817.81;;;5.68;45.36
8703;BME280;9002;42.708;23.186;2024-01-15T12:49:46;93822.56;;;5.60;45.01
8703;BME280;9002;42.708;23.186;2024-01-15T12:52:19;93835.09;;;5.56;45.15
8703;BME280;9002;42.708;23.186;2024-01-15T12:54:47;93838.50;;;5.62;44.41
8703;BME280;9002;42.708;23.186;2024-01-15T12:57:16;93817.03;;;5.68;44.96
8703;BME280;9002;42.708;23.186;2024-01-15T12:59:44;93818.72;;;5.79;45.77
8703;BME280;9002;42.708;23.186;2024-01-15T13:02:11;93821.81;;;5.81;44.75
8703;BME280;9002;42.708;23.186;2024-01-15T13:04:38;93812.28;;;5.77;45.71
8703;BME280;9002;42.708;23.186;2024-01-15T13:07:05;93820.56;;;5.84;45.52
8703;BME280;9002;42.708;23.186;2024-01-15T13:09:34;93808.47;;;5.46;46.12
8703;BME280;9002;42.708;23.186;2024-01-15T13:12:02;93801.56;;;5.29;45.67
8703;BME280;9002;42.708;23.186;2024-01-15T13:14:29;93788.94;;;5.45;46.88
8703;BME280;9002;42.708;23.186;2024-01-15T13:16:59;93805.91;;;5.62;46.49
8703;BME280;9002;42.708;23.186;2024-01-15T13:19:26;93807.59;;;5.57;45.92
8703;BME280;9002;42.708;23.186;2024-01-15T13:21:53;93796.94;;;5.65;45.84
8703;BME280;9002;42.708;23.186;2024-01-15T13:24:21;93798.66;;;5.76;46.18